Saint Louis, Missouri
Traffic Map
Current Weather Conditions
Saint Louis, Missouri
Broken Clouds
Broken Clouds
33°
Feels Like: 36°
Wind Chill: 33° Ceiling: 4000
Heat Index: 36° Visibility: 10mi
Dew Point: 22° Wind: 6mph
Humidity: 52% Direction: 200° (SSW)
Pressure: 30.06in Gusts: 0mph
Raw Report DataKCPS 251753Z 20005KT 10SM BKN040 33/22 A3006 RMK AO2 SLP175 T03280217 10333 20228 58000
Traffic Incident Summary
Active as of:
Severity:
Category:
InformationThere was an issue retrieving the traffic information for this location. Please try a different location or try again shortly.
Advertisements
Track Severe Weather on mobile